Time;durP1;ratioP1;P1;durP2;ratioP2;P2;SDS_P1;SDS_P2;PMS_P1;PMS_P2;Temp;Humidity;BMP_temperature;BMP_pressure;BME280_temperature;BME280_humidity;BME280_pressure;Samples;Min_cycle;Max_cycle;Signal;HPM_P1;HPM_P2
2023/01/11 00:02:06;;;;;;;59.67;27.00;;;5.50;99.90;;;;;;5013867;28;20240;-86
2023/01/11 00:04:56;;;;;;;64.33;27.20;;;5.50;99.90;;;;;;5028209;28;20512;-85
2023/01/11 00:07:45;;;;;;;61.20;25.70;;;5.60;99.90;;;;;;5040715;28;20419;-85
2023/01/11 00:10:34;;;;;;;62.53;26.47;;;5.50;99.90;;;;;;5039061;28;20236;-88
2023/01/11 00:13:24;;;;;;;61.53;27.70;;;5.40;99.90;;;;;;5025794;28;20221;-86
2023/01/11 00:16:13;;;;;;;69.33;29.23;;;5.40;99.90;;;;;;5046017;28;20303;-84
2023/01/11 00:19:02;;;;;;;70.07;28.73;;;5.40;99.90;;;;;;5045609;28;20272;-84
2023/01/11 00:21:52;;;;;;;65.93;29.50;;;5.30;99.90;;;;;;5030125;28;20739;-83
2023/01/11 00:24:41;;;;;;;77.30;32.00;;;5.30;99.90;;;;;;5040718;28;20341;-84
2023/01/11 00:27:30;;;;;;;72.60;30.93;;;5.40;99.90;;;;;;5028096;28;20245;-84
2023/01/11 00:30:19;;;;;;;84.53;32.53;;;5.50;99.90;;;;;;5029716;28;20228;-86
2023/01/11 00:33:11;;;;;;;79.00;32.60;;;5.40;99.90;;;;;;5027673;28;20225;-86
2023/01/11 00:36:00;;;;;;;82.10;34.93;;;5.40;99.90;;;;;;5028994;28;20316;-85
2023/01/11 00:38:54;;;;;;;79.97;34.70;;;5.50;99.90;;;;;;5017653;28;20225;-85
2023/01/11 00:47:59;;;;;;;86.13;36.20;;;5.50;99.90;;;;;;5022791;28;20271;-84
2023/01/11 00:50:48;;;;;;;86.13;36.70;;;5.50;99.90;;;;;;5033478;28;20574;-84
2023/01/11 00:53:36;;;;;;;84.73;33.77;;;5.50;99.90;;;;;;5037645;28;20217;-85
2023/01/11 00:56:26;;;;;;;90.73;36.53;;;5.50;99.90;;;;;;5058374;28;20315;-84
2023/01/11 00:59:15;;;;;;;84.03;35.53;;;5.50;99.90;;;;;;5037376;28;21002;-85
2023/01/11 01:02:04;;;;;;;87.83;35.67;;;5.40;99.90;;;;;;5043527;28;20276;-84
2023/01/11 01:04:53;;;;;;;90.30;36.10;;;5.50;99.90;;;;;;5039176;28;20228;-84
2023/01/11 01:07:42;;;;;;;80.97;34.10;;;5.50;99.90;;;;;;5038380;28;20226;-84
2023/01/11 01:10:31;;;;;;;73.07;32.70;;;5.60;99.90;;;;;;5041713;28;21113;-83
2023/01/11 01:16:28;;;;;;;75.97;33.50;;;5.40;99.90;;;;;;5047441;28;20235;-84
2023/01/11 01:19:17;;;;;;;75.53;35.47;;;5.40;99.90;;;;;;5030255;28;20228;-84
2023/01/11 01:22:06;;;;;;;80.43;33.90;;;5.40;99.90;;;;;;5024503;28;20240;-86
2023/01/11 01:24:55;;;;;;;77.90;32.83;;;5.50;99.90;;;;;;5027539;28;20225;-84
2023/01/11 01:27:43;;;;;;;67.73;33.43;;;5.50;99.90;;;;;;5037905;28;20218;-84
2023/01/11 01:30:34;;;;;;;69.03;32.00;;;5.50;99.90;;;;;;5041650;28;20246;-84
2023/01/11 01:33:23;;;;;;;59.30;30.90;;;5.60;99.90;;;;;;5037353;28;20229;-85
2023/01/11 01:36:11;;;;;;;66.30;30.80;;;5.50;99.90;;;;;;5041843;28;20224;-84
2023/01/11 01:39:01;;;;;;;64.33;30.27;;;5.30;99.90;;;;;;5036394;28;20229;-85
2023/01/11 01:41:50;;;;;;;65.80;31.07;;;5.30;99.90;;;;;;5024659;28;20236;-86
2023/01/11 01:45:06;;;;;;;63.90;30.93;;;5.40;99.90;;;;;;5027163;28;20241;-84
2023/01/11 01:48:00;;;;;;;68.23;30.50;;;5.30;99.90;;;;;;5034464;28;20950;-85
2023/01/11 01:50:53;;;;;;;68.27;31.03;;;5.40;99.90;;;;;;5026900;28;20218;-85
2023/01/11 01:53:45;;;;;;;69.00;31.80;;;5.40;99.90;;;;;;5029584;28;20224;-79
2023/01/11 01:56:39;;;;;;;66.57;32.13;;;5.50;99.90;;;;;;5017589;28;20224;-79
2023/01/11 01:59:31;;;;;;;73.07;32.13;;;5.40;99.90;;;;;;5038481;28;20217;-80
2023/01/11 02:02:22;;;;;;;71.43;31.83;;;5.40;99.90;;;;;;5027154;28;20838;-80
2023/01/11 02:05:13;;;;;;;72.87;33.80;;;5.60;99.90;;;;;;5031671;28;20226;-80
2023/01/11 02:08:08;;;;;;;72.43;31.87;;;5.60;99.90;;;;;;5016794;28;20222;-79
2023/01/11 02:10:57;;;;;;;69.27;31.47;;;5.70;99.90;;;;;;5029349;28;20233;-79
2023/01/11 02:13:46;;;;;;;67.50;30.83;;;5.70;99.90;;;;;;5028657;28;20232;-85
2023/01/11 02:16:35;;;;;;;70.47;29.90;;;5.80;99.90;;;;;;5018893;28;20241;-83
2023/01/11 02:19:45;;;;;;;64.67;29.73;;;5.70;99.90;;;;;;5023615;28;20225;-82
2023/01/11 02:23:09;;;;;;;66.77;28.23;;;5.70;99.90;;;;;;5054906;28;20596;-83
2023/01/11 02:26:45;;;;;;;58.23;28.83;;;5.60;99.90;;;;;;5027905;28;20743;-83
2023/01/11 02:29:49;;;;;;;73.90;28.03;;;5.60;99.90;;;;;;4974461;28;20246;-83
2023/01/11 02:32:48;;;;;;;60.23;27.83;;;5.40;99.90;;;;;;5038478;28;20217;-84
2023/01/11 02:35:43;;;;;;;56.03;28.07;;;5.40;99.90;;;;;;5034952;28;20623;-84
2023/01/11 02:38:39;;;;;;;67.23;28.13;;;5.40;99.90;;;;;;5057931;28;20275;-84
2023/01/11 02:45:00;;;;;;;65.60;29.90;;;5.50;99.90;;;;;;5036150;28;20707;-83
2023/01/11 02:45:03;;;;;;;64.33;28.93;;;5.40;99.90;;;;;;5042281;28;20260;-83
2023/01/11 02:47:58;;;;;;;62.50;30.43;;;5.40;99.90;;;;;;5024059;28;20232;-84
2023/01/11 02:50:54;;;;;;;67.50;30.57;;;5.60;99.90;;;;;;5025311;28;20233;-84
2023/01/11 02:53:46;;;;;;;68.37;30.57;;;5.60;99.90;;;;;;5028698;28;20324;-83
2023/01/11 02:56:47;;;;;;;62.77;30.87;;;5.50;99.90;;;;;;5026772;28;20268;-82
2023/01/11 02:59:37;;;;;;;50.07;27.13;;;5.50;99.90;;;;;;5028255;28;20260;-82
2023/01/11 03:02:27;;;;;;;62.63;29.63;;;5.50;99.90;;;;;;5034336;28;20574;-83
2023/01/11 03:05:16;;;;;;;56.43;28.60;;;5.40;99.90;;;;;;5031696;28;20237;-83
2023/01/11 03:08:30;;;;;;;58.77;29.57;;;5.40;99.90;;;;;;5048008;28;20220;-83
2023/01/11 03:12:50;;;;;;;65.80;30.30;;;5.60;99.90;;;;;;5032450;28;20228;-84
2023/01/11 03:14:49;;;;;;;61.40;27.93;;;5.60;99.90;;;;;;5035605;28;20232;-83
2023/01/11 03:17:50;;;;;;;55.40;30.77;;;5.50;99.90;;;;;;5019477;28;20340;-85
2023/01/11 03:20:41;;;;;;;60.37;27.57;;;5.50;99.90;;;;;;5022832;28;20216;-84
2023/01/11 03:23:37;;;;;;;68.43;27.17;;;5.40;99.90;;;;;;5021320;28;20227;-85
2023/01/11 03:26:35;;;;;;;64.13;29.13;;;5.50;99.90;;;;;;5017555;28;20249;-84
2023/01/11 03:29:31;;;;;;;66.77;28.70;;;5.40;99.90;;;;;;5024112;28;20224;-84
2023/01/11 03:32:26;;;;;;;69.83;29.33;;;5.30;99.90;;;;;;5019625;28;20225;-84
2023/01/11 03:35:23;;;;;;;58.57;28.67;;;5.30;99.90;;;;;;5029024;28;20224;-84
2023/01/11 03:38:18;;;;;;;56.20;29.87;;;5.40;99.90;;;;;;5022951;28;20221;-83
2023/01/11 03:41:12;;;;;;;68.67;29.83;;;5.40;99.90;;;;;;5007530;28;20225;-84
2023/01/11 03:44:04;;;;;;;59.57;28.77;;;5.40;99.90;;;;;;5019795;28;20570;-84
2023/01/11 03:46:57;;;;;;;65.40;28.40;;;5.40;99.90;;;;;;5024621;28;20715;-84
2023/01/11 03:49:51;;;;;;;67.70;30.63;;;5.30;99.90;;;;;;5028148;28;20240;-86
2023/01/11 03:52:45;;;;;;;69.10;28.57;;;5.40;99.90;;;;;;5013898;28;20711;-85
2023/01/11 03:55:38;;;;;;;82.40;28.90;;;5.30;99.90;;;;;;5033659;28;20220;-85
2023/01/11 03:58:28;;;;;;;59.57;28.00;;;5.30;99.90;;;;;;5022103;28;20230;-84
2023/01/11 04:01:17;;;;;;;63.27;31.33;;;5.30;99.90;;;;;;5033581;28;20223;-86
2023/01/11 04:04:06;;;;;;;68.07;32.13;;;5.40;99.90;;;;;;5030726;28;20241;-84
2023/01/11 04:06:56;;;;;;;90.57;29.77;;;5.40;99.90;;;;;;5016885;28;20244;-83
2023/01/11 04:09:46;;;;;;;65.90;30.57;;;5.30;99.90;;;;;;5022664;28;20678;-86
2023/01/11 04:12:35;;;;;;;73.27;32.67;;;5.40;99.90;;;;;;5018925;28;20930;-84
2023/01/11 04:15:24;;;;;;;74.87;32.13;;;5.50;99.90;;;;;;5029525;28;20237;-84
2023/01/11 04:18:13;;;;;;;65.37;31.00;;;5.60;99.90;;;;;;5019549;28;20221;-83
2023/01/11 04:21:01;;;;;;;67.27;31.63;;;5.50;99.90;;;;;;5035087;28;20218;-83
2023/01/11 04:23:50;;;;;;;57.30;28.90;;;5.50;99.90;;;;;;5031571;28;20665;-82
2023/01/11 04:26:41;;;;;;;94.60;25.57;;;5.40;99.90;;;;;;5038309;28;20248;-84
2023/01/11 04:29:29;;;;;;;97.23;26.83;;;5.30;99.90;;;;;;5040378;28;20695;-85
2023/01/11 04:32:18;;;;;;;74.73;28.77;;;5.10;99.90;;;;;;5032848;28;20240;-85
2023/01/11 04:35:08;;;;;;;65.10;28.90;;;5.10;99.90;;;;;;5011064;28;20220;-84
2023/01/11 04:37:59;;;;;;;87.07;28.73;;;5.10;99.90;;;;;;5040339;28;20722;-84
2023/01/11 04:42:16;;;;;;;64.83;28.87;;;5.20;99.90;;;;;;5036954;28;20225;-85
2023/01/11 04:43:58;;;;;;;90.07;28.40;;;5.20;99.90;;;;;;5038377;28;20231;-84
2023/01/11 04:46:46;;;;;;;73.40;24.20;;;5.20;99.90;;;;;;5018118;28;20281;-84
2023/01/11 04:49:35;;;;;;;51.63;24.83;;;5.00;99.90;;;;;;5018005;28;20806;-84
2023/01/11 04:52:24;;;;;;;81.57;23.60;;;5.00;99.90;;;;;;5030213;28;20231;-85
2023/01/11 04:55:12;;;;;;;65.77;23.77;;;5.00;99.90;;;;;;5027791;28;20216;-84
2023/01/11 04:58:01;;;;;;;56.23;23.87;;;5.00;99.90;;;;;;5013918;28;20221;-83
2023/01/11 05:00:51;;;;;;;56.70;22.87;;;5.10;99.90;;;;;;5026752;28;20225;-83
2023/01/11 05:03:40;;;;;;;57.77;22.93;;;5.10;99.90;;;;;;5022370;28;25947;-84
2023/01/11 05:06:29;;;;;;;57.80;22.43;;;5.20;99.90;;;;;;5034956;28;20224;-85
2023/01/11 05:09:19;;;;;;;55.73;21.87;;;5.20;99.90;;;;;;5016854;28;20226;-84
2023/01/11 05:12:08;;;;;;;47.57;21.10;;;5.20;99.90;;;;;;5025462;28;20221;-84
2023/01/11 05:14:58;;;;;;;83.77;20.17;;;5.20;99.90;;;;;;5036883;28;20221;-86
2023/01/11 05:17:48;;;;;;;55.20;19.03;;;5.20;99.90;;;;;;5036983;28;20227;-84
2023/01/11 05:20:36;;;;;;;60.67;20.07;;;5.10;99.90;;;;;;5039897;28;20230;-83
2023/01/11 05:23:25;;;;;;;60.47;18.40;;;5.00;99.90;;;;;;5053384;28;20664;-84
2023/01/11 05:26:16;;;;;;;45.83;18.40;;;4.90;99.90;;;;;;5035578;28;20226;-84
2023/01/11 05:29:07;;;;;;;42.10;17.80;;;4.90;99.90;;;;;;5042047;28;20222;-86
2023/01/11 05:31:55;;;;;;;40.90;18.63;;;5.00;99.90;;;;;;5032299;28;20229;-83
2023/01/11 05:34:46;;;;;;;52.03;18.43;;;5.00;99.90;;;;;;5036241;28;20713;-84
2023/01/11 05:37:34;;;;;;;48.80;18.17;;;5.00;99.90;;;;;;5037112;28;20226;-86
2023/01/11 05:40:23;;;;;;;43.63;17.10;;;5.00;99.90;;;;;;5020088;28;20232;-85
2023/01/11 05:43:12;;;;;;;49.83;18.53;;;5.00;99.90;;;;;;5040865;28;20226;-85
2023/01/11 05:46:00;;;;;;;47.67;18.80;;;5.00;99.90;;;;;;5012892;28;20245;-87
2023/01/11 05:48:49;;;;;;;49.90;19.30;;;5.00;99.90;;;;;;5040436;28;20218;-84
2023/01/11 05:51:40;;;;;;;41.53;16.40;;;5.00;99.90;;;;;;5015026;28;20217;-86
2023/01/11 05:54:29;;;;;;;54.13;18.67;;;5.10;99.90;;;;;;5019385;28;20249;-88
2023/01/11 05:57:18;;;;;;;62.07;16.23;;;5.00;99.90;;;;;;5027691;28;20406;-86
2023/01/11 06:00:11;;;;;;;42.07;17.23;;;5.00;99.90;;;;;;5024300;28;20235;-89
2023/01/11 06:03:01;;;;;;;44.27;18.03;;;5.00;99.90;;;;;;5020482;28;20313;-86
2023/01/11 06:05:50;;;;;;;47.00;18.33;;;5.10;99.90;;;;;;5038142;28;20316;-86
2023/01/11 06:08:41;;;;;;;45.17;17.50;;;5.10;99.90;;;;;;5032320;28;20229;-92
2023/01/11 06:11:31;;;;;;;42.90;17.43;;;5.20;99.90;;;;;;5021126;28;20222;-86
2023/01/11 06:14:20;;;;;;;42.30;16.40;;;5.10;99.90;;;;;;5035577;28;20312;-84
2023/01/11 06:17:09;;;;;;;39.60;16.67;;;5.20;99.90;;;;;;5040907;28;20571;-86
2023/01/11 06:19:58;;;;;;;46.90;16.87;;;5.10;99.90;;;;;;5025119;28;20232;-85
2023/01/11 06:22:47;;;;;;;42.10;16.13;;;5.00;99.90;;;;;;5030842;28;20229;-84
2023/01/11 06:25:37;;;;;;;41.73;17.17;;;5.00;99.90;;;;;;5022012;28;20312;-85
2023/01/11 06:28:26;;;;;;;38.00;16.07;;;5.20;99.90;;;;;;5045586;28;20221;-87
2023/01/11 06:31:15;;;;;;;32.47;14.47;;;5.10;99.90;;;;;;5029250;28;20267;-85
2023/01/11 06:34:05;;;;;;;39.80;15.63;;;5.10;99.90;;;;;;5019568;28;20229;-85
2023/01/11 06:36:54;;;;;;;35.83;14.73;;;5.00;99.90;;;;;;5030069;28;20225;-85
2023/01/11 06:39:43;;;;;;;39.93;16.23;;;4.90;99.90;;;;;;5018638;28;20775;-84
2023/01/11 06:42:35;;;;;;;40.13;16.43;;;4.90;99.90;;;;;;5029233;28;20218;-84
2023/01/11 06:45:24;;;;;;;35.47;15.40;;;4.90;99.90;;;;;;5031752;28;20251;-85
2023/01/11 06:48:12;;;;;;;40.63;16.33;;;5.00;99.90;;;;;;5037876;28;20229;-84
2023/01/11 06:51:01;;;;;;;34.87;15.33;;;5.10;99.90;;;;;;5014626;28;20225;-85
2023/01/11 06:53:50;;;;;;;36.13;15.93;;;5.00;99.90;;;;;;5023128;28;20228;-85
2023/01/11 06:56:42;;;;;;;37.67;15.20;;;4.90;99.90;;;;;;5014872;28;20214;-90
2023/01/11 06:59:37;;;;;;;39.23;16.90;;;4.90;99.90;;;;;;5034705;28;20224;-86
2023/01/11 07:02:28;;;;;;;37.60;15.93;;;4.90;99.90;;;;;;5030146;28;20222;-85
2023/01/11 07:05:22;;;;;;;42.77;16.53;;;4.90;99.90;;;;;;5021301;28;20221;-87
2023/01/11 07:08:09;;;;;;;37.80;15.63;;;5.00;99.90;;;;;;5660503;22;20216;-84
2023/01/11 07:10:57;;;;;;;37.53;15.97;;;5.00;99.90;;;;;;5072630;28;20284;-86
2023/01/11 07:13:46;;;;;;;36.20;16.30;;;5.00;99.90;;;;;;5081438;28;20217;-85
2023/01/11 07:16:36;;;;;;;36.63;16.10;;;5.00;99.90;;;;;;5066310;28;20224;-86
2023/01/11 07:19:25;;;;;;;37.23;16.60;;;5.10;99.90;;;;;;5068881;28;20224;-86
2023/01/11 07:22:15;;;;;;;37.67;16.33;;;5.10;99.90;;;;;;5064705;28;20211;-81
2023/01/11 07:25:06;;;;;;;35.00;15.60;;;4.80;99.90;;;;;;5064948;28;20681;-84
2023/01/11 07:27:59;;;;;;;33.93;15.47;;;4.90;99.90;;;;;;5064676;28;20231;-86
2023/01/11 07:30:49;;;;;;;33.10;15.70;;;4.90;99.90;;;;;;5050641;28;20217;-86
2023/01/11 07:33:48;;;;;;;34.10;16.27;;;5.00;99.90;;;;;;5055303;28;20319;-89
2023/01/11 07:36:38;;;;;;;39.03;16.40;;;5.00;99.90;;;;;;5059985;28;20783;-86
2023/01/11 07:39:27;;;;;;;35.67;15.87;;;5.00;99.90;;;;;;5059348;28;20232;-88
2023/01/11 07:45:40;;;;;;;30.43;13.90;;;5.00;99.90;;;;;;5058389;28;20237;-90
2023/01/11 07:48:34;;;;;;;29.57;14.53;;;4.80;99.90;;;;;;5066019;28;20231;-88
2023/01/11 07:51:24;;;;;;;29.10;13.67;;;4.80;99.90;;;;;;5066772;28;20227;-87
2023/01/11 07:54:13;;;;;;;31.37;14.30;;;4.90;99.90;;;;;;5062931;28;20224;-88
2023/01/11 07:57:02;;;;;;;32.43;14.97;;;5.00;99.90;;;;;;5058607;28;20323;-87
2023/01/11 07:59:51;;;;;;;33.07;14.60;;;4.90;99.90;;;;;;5063911;28;20239;-87
2023/01/11 08:02:40;;;;;;;29.37;14.00;;;5.00;99.90;;;;;;5061950;28;20216;-85
2023/01/11 08:05:29;;;;;;;37.17;14.10;;;5.10;99.90;;;;;;5056138;28;20298;-84
2023/01/11 08:08:19;;;;;;;34.63;14.60;;;5.10;99.90;;;;;;5064289;28;20216;-85
2023/01/11 08:17:21;;;;;;;31.93;14.57;;;5.20;99.90;;;;;;5060561;28;20232;-82
2023/01/11 08:20:11;;;;;;;33.07;15.70;;;5.20;99.90;;;;;;5071659;28;20242;-87
2023/01/11 08:23:03;;;;;;;33.60;15.33;;;5.20;99.90;;;;;;5069917;28;20216;-90
2023/01/11 08:25:57;;;;;;;30.97;14.43;;;5.10;99.90;;;;;;5066335;28;20297;-89
2023/01/11 08:28:47;;;;;;;31.20;13.93;;;5.10;99.90;;;;;;5063018;28;20225;-88
2023/01/11 08:31:39;;;;;;;30.83;15.20;;;5.10;99.90;;;;;;5070085;28;20240;-87
2023/01/11 08:34:28;;;;;;;31.67;14.40;;;5.30;99.90;;;;;;5062852;28;20309;-85
2023/01/11 08:37:17;;;;;;;27.30;14.23;;;5.30;99.90;;;;;;5061325;28;20240;-87
2023/01/11 08:40:07;;;;;;;34.80;14.03;;;5.20;99.90;;;;;;5045520;28;20232;-83
2023/01/11 08:42:58;;;;;;;29.20;13.70;;;5.20;99.90;;;;;;5040655;28;20221;-84
2023/01/11 08:45:47;;;;;;;32.07;13.67;;;5.20;99.90;;;;;;5048049;28;20221;-83
2023/01/11 08:48:36;;;;;;;31.97;14.47;;;5.10;99.90;;;;;;5041221;28;20247;-82
2023/01/11 08:51:25;;;;;;;28.60;14.33;;;5.20;99.90;;;;;;5056807;28;20311;-82
2023/01/11 08:54:16;;;;;;;30.63;15.47;;;5.20;99.90;;;;;;5056541;28;20228;-80
2023/01/11 08:57:05;;;;;;;31.53;15.40;;;5.20;99.90;;;;;;5053957;28;20220;-82
2023/01/11 08:59:55;;;;;;;31.63;14.30;;;5.20;99.90;;;;;;5060752;28;20303;-88
2023/01/11 09:02:44;;;;;;;47.67;14.40;;;5.30;99.90;;;;;;5076136;28;20255;-89
2023/01/11 09:05:33;;;;;;;33.73;13.73;;;5.20;99.90;;;;;;5062841;28;20220;-86
2023/01/11 09:08:23;;;;;;;29.23;14.80;;;4.70;99.90;;;;;;5063253;28;20843;-85
2023/01/11 09:14:14;;;;;;;29.53;14.43;;;4.90;99.90;;;;;;5050711;28;20238;-87
2023/01/11 09:17:05;;;;;;;36.67;14.13;;;5.00;99.90;;;;;;5072228;28;20315;-86
2023/01/11 09:19:53;;;;;;;30.27;14.63;;;5.00;99.90;;;;;;5063431;28;20220;-85
2023/01/11 09:22:45;;;;;;;28.23;14.23;;;5.10;99.90;;;;;;5082140;28;20582;-88
2023/01/11 09:25:34;;;;;;;28.57;14.37;;;5.00;99.90;;;;;;5095993;28;20209;-87
2023/01/11 09:28:23;;;;;;;26.93;14.50;;;5.00;99.90;;;;;;5088890;28;20270;-82
2023/01/11 09:31:12;;;;;;;29.73;14.83;;;5.10;99.90;;;;;;5090147;28;20283;-84
2023/01/11 09:34:03;;;;;;;28.00;14.10;;;5.10;99.90;;;;;;5071037;28;20557;-86
2023/01/11 09:36:52;;;;;;;28.93;14.47;;;5.10;99.90;;;;;;5062183;28;20282;-84
2023/01/11 09:39:42;;;;;;;34.80;15.83;;;4.80;99.90;;;;;;5059669;28;20796;-89
2023/01/11 09:42:36;;;;;;;35.53;15.33;;;5.10;99.90;;;;;;5064350;28;20320;-88
2023/01/11 09:45:29;;;;;;;30.67;15.03;;;5.10;99.90;;;;;;5061852;28;20775;-83
2023/01/11 09:48:27;;;;;;;28.63;15.00;;;5.20;99.90;;;;;;5061619;28;21046;-86
2023/01/11 09:51:19;;;;;;;32.17;15.37;;;5.20;99.90;;;;;;5043675;28;20304;-83
2023/01/11 09:54:15;;;;;;;33.47;15.97;;;5.20;99.90;;;;;;5059054;28;20351;-85
2023/01/11 09:57:14;;;;;;;32.10;15.53;;;5.20;99.90;;;;;;5071390;28;20243;-85
2023/01/11 10:00:11;;;;;;;32.53;16.57;;;5.20;99.90;;;;;;5056171;28;20225;-87
2023/01/11 10:03:23;;;;;;;32.43;16.37;;;5.20;99.90;;;;;;5063758;28;20247;-83
2023/01/11 10:06:18;;;;;;;30.73;16.37;;;5.20;99.90;;;;;;5071400;28;20276;-87
2023/01/11 10:09:25;;;;;;;33.90;16.77;;;5.40;99.90;;;;;;5058645;28;20235;-85
2023/01/11 10:12:42;;;;;;;30.23;15.40;;;5.50;99.90;;;;;;5062731;28;21034;-87
2023/01/11 10:15:59;;;;;;;30.47;15.50;;;5.40;99.90;;;;;;5055686;28;21018;-82
2023/01/11 10:19:15;;;;;;;27.97;15.47;;;5.40;99.90;;;;;;5052172;28;20238;-82
2023/01/11 10:22:32;;;;;;;28.23;15.30;;;5.40;99.90;;;;;;5048739;28;20232;-84
2023/01/11 10:25:26;;;;;;;34.80;16.13;;;5.50;99.90;;;;;;5070723;28;20580;-87
2023/01/11 10:28:27;;;;;;;32.90;16.87;;;5.50;99.90;;;;;;5061002;28;20215;-87
2023/01/11 10:31:28;;;;;;;32.93;16.33;;;5.30;99.90;;;;;;5051342;28;20247;-86
2023/01/11 10:34:40;;;;;;;33.23;16.63;;;5.10;99.90;;;;;;5043220;28;20878;-91
2023/01/11 10:37:53;;;;;;;30.50;15.67;;;5.20;99.90;;;;;;5067127;28;20223;-90
2023/01/11 10:41:05;;;;;;;29.73;16.30;;;5.20;99.90;;;;;;5075125;28;20220;-87
2023/01/11 10:44:05;;;;;;;29.10;16.67;;;5.30;99.90;;;;;;5076475;28;20349;-89
2023/01/11 10:46:58;;;;;;;32.30;17.23;;;5.40;99.90;;;;;;5070253;28;20220;-88
2023/01/11 10:49:55;;;;;;;32.77;17.63;;;5.50;99.90;;;;;;5072510;28;20294;-88
2023/01/11 10:52:53;;;;;;;34.93;17.60;;;5.30;99.90;;;;;;5064523;28;20228;-88
2023/01/11 10:55:51;;;;;;;32.97;17.17;;;5.40;99.90;;;;;;5077039;28;20232;-91
2023/01/11 10:59:02;;;;;;;25.80;16.00;;;5.50;99.90;;;;;;5062943;28;20208;-90
2023/01/11 11:02:02;;;;;;;32.30;17.50;;;5.60;99.90;;;;;;5081912;28;20751;-88
2023/01/11 11:05:06;;;;;;;30.47;16.90;;;5.60;99.90;;;;;;5067639;28;20375;-90
2023/01/11 11:08:14;;;;;;;30.13;17.03;;;5.60;99.90;;;;;;5053471;28;20296;-89
2023/01/11 11:11:12;;;;;;;29.00;17.13;;;5.50;99.90;;;;;;5073096;28;20238;-87
2023/01/11 11:14:09;;;;;;;29.33;16.80;;;5.40;99.90;;;;;;5068216;28;20320;-87
2023/01/11 11:17:10;;;;;;;30.57;17.33;;;5.50;99.90;;;;;;5062769;28;20584;-87
2023/01/11 11:20:00;;;;;;;28.00;15.93;;;5.20;99.90;;;;;;5051936;28;20303;-87
2023/01/11 11:22:50;;;;;;;27.13;15.73;;;5.40;99.90;;;;;;5071609;28;20226;-91
2023/01/11 11:25:48;;;;;;;27.60;16.43;;;5.30;99.90;;;;;;5062364;28;20220;-89
2023/01/11 11:28:38;;;;;;;28.07;16.63;;;5.30;99.90;;;;;;5081304;28;20251;-85
2023/01/11 11:31:29;;;;;;;26.53;15.70;;;5.20;99.90;;;;;;5047136;28;20220;-85
2023/01/11 11:34:21;;;;;;;27.33;16.03;;;5.30;99.90;;;;;;5071327;28;20216;-87
2023/01/11 11:37:24;;;;;;;27.40;15.73;;;5.30;99.90;;;;;;5068048;28;20230;-85
2023/01/11 11:40:29;;;;;;;30.37;15.30;;;5.40;99.90;;;;;;5069757;28;20230;-85
2023/01/11 11:43:22;;;;;;;24.50;15.97;;;5.50;99.90;;;;;;5068044;28;20280;-85
2023/01/11 11:46:24;;;;;;;29.53;16.20;;;5.50;99.90;;;;;;5068891;28;20311;-86
2023/01/11 11:49:16;;;;;;;32.27;15.80;;;5.60;99.90;;;;;;5067962;28;20215;-83
2023/01/11 11:52:09;;;;;;;26.47;15.00;;;5.60;99.90;;;;;;5063245;28;20599;-81
2023/01/11 11:54:58;;;;;;;29.67;15.30;;;5.70;99.90;;;;;;5060710;28;20224;-84
2023/01/11 11:57:48;;;;;;;27.07;15.10;;;5.60;99.90;;;;;;5069668;28;20223;-84
2023/01/11 12:00:45;;;;;;;28.43;16.60;;;5.50;99.90;;;;;;5067303;28;22624;-85
2023/01/11 12:03:34;;;;;;;28.00;16.50;;;5.60;99.90;;;;;;5061679;28;20223;-85
2023/01/11 12:06:27;;;;;;;24.87;14.37;;;5.50;99.90;;;;;;5068682;28;20220;-83
2023/01/11 12:09:27;;;;;;;29.33;14.33;;;5.50;99.90;;;;;;5089894;28;20548;-84
2023/01/11 12:12:18;;;;;;;23.37;13.60;;;5.80;99.90;;;;;;5076919;28;20216;-84
2023/01/11 12:15:23;;;;;;;24.90;13.63;;;5.80;99.90;;;;;;5078735;28;20276;-83
2023/01/11 12:18:25;;;;;;;20.60;13.50;;;5.60;99.90;;;;;;5081359;28;20227;-83
2023/01/11 12:21:20;;;;;;;24.63;13.47;;;5.70;99.90;;;;;;5076805;28;20215;-84
2023/01/11 12:24:15;;;;;;;22.83;13.57;;;5.70;99.90;;;;;;5069246;28;20223;-86
2023/01/11 12:27:13;;;;;;;21.73;13.43;;;5.70;99.90;;;;;;5066721;28;20709;-85
2023/01/11 12:30:21;;;;;;;20.70;13.17;;;5.60;99.90;;;;;;5058163;28;20234;-85
2023/01/11 12:33:32;;;;;;;24.40;13.63;;;5.60;99.90;;;;;;5073014;28;21742;-89
2023/01/11 12:36:30;;;;;;;20.73;13.43;;;5.60;99.90;;;;;;5069644;28;20224;-89
2023/01/11 12:39:28;;;;;;;21.80;13.47;;;5.60;99.90;;;;;;5082440;28;20217;-82
2023/01/11 12:42:37;;;;;;;22.37;13.53;;;5.40;99.90;;;;;;5062305;28;20746;-87
2023/01/11 12:45:38;;;;;;;22.87;13.83;;;5.40;99.90;;;;;;5072918;28;20302;-89
2023/01/11 12:48:43;;;;;;;25.87;14.43;;;5.40;99.90;;;;;;5050235;28;20227;-88
2023/01/11 12:51:45;;;;;;;24.93;14.23;;;5.50;99.90;;;;;;5062661;28;20216;-90
2023/01/11 12:54:52;;;;;;;22.17;14.03;;;5.60;99.90;;;;;;5068530;28;20248;-89
2023/01/11 12:57:58;;;;;;;23.40;14.80;;;5.70;99.90;;;;;;5052240;28;20252;-91
2023/01/11 13:01:11;;;;;;;22.57;14.40;;;5.60;99.90;;;;;;5079582;28;20228;-88
2023/01/11 13:04:36;;;;;;;25.50;14.60;;;5.60;99.90;;;;;;5068783;28;20262;-87
2023/01/11 13:07:40;;;;;;;25.03;14.80;;;5.60;99.90;;;;;;5057875;28;20231;-89
2023/01/11 13:10:36;;;;;;;23.00;13.60;;;5.60;99.90;;;;;;5078359;28;20232;-88
2023/01/11 13:13:31;;;;;;;21.30;13.47;;;5.60;99.90;;;;;;5089990;28;20225;-87
2023/01/11 13:16:26;;;;;;;22.83;14.40;;;5.50;99.90;;;;;;5086563;28;20222;-86
2023/01/11 13:19:21;;;;;;;23.33;14.63;;;5.50;99.90;;;;;;5088764;28;20235;-88
2023/01/11 13:22:14;;;;;;;26.13;15.50;;;5.40;99.90;;;;;;5087485;28;20574;-84
2023/01/11 13:25:15;;;;;;;22.03;13.57;;;5.50;99.90;;;;;;5084243;28;20229;-86
2023/01/11 13:28:19;;;;;;;24.47;13.97;;;5.30;99.90;;;;;;5071663;28;20224;-82
2023/01/11 13:31:14;;;;;;;24.70;14.80;;;5.30;99.90;;;;;;5081530;28;20220;-82
2023/01/11 13:34:07;;;;;;;24.40;14.83;;;5.40;99.90;;;;;;5073976;28;20223;-86
2023/01/11 13:36:59;;;;;;;24.87;14.50;;;5.40;99.90;;;;;;5076411;28;20231;-85
2023/01/11 13:39:52;;;;;;;23.10;14.30;;;5.20;99.90;;;;;;5072517;28;20844;-84
2023/01/11 13:42:46;;;;;;;25.40;15.57;;;5.20;99.90;;;;;;5060918;28;20240;-85
2023/01/11 13:45:40;;;;;;;28.03;15.77;;;5.20;99.90;;;;;;5079059;28;20315;-85
2023/01/11 13:48:35;;;;;;;28.47;15.27;;;5.20;99.90;;;;;;5065240;28;20224;-82
2023/01/11 13:51:31;;;;;;;26.10;15.30;;;5.20;99.90;;;;;;5069574;28;20253;-81
2023/01/11 13:54:25;;;;;;;25.07;16.63;;;5.20;99.90;;;;;;5053940;28;20232;-84
2023/01/11 13:57:21;;;;;;;27.53;15.83;;;5.00;99.90;;;;;;5082141;28;20212;-83
2023/01/11 14:00:22;;;;;;;24.17;16.37;;;5.00;99.90;;;;;;5079083;28;20705;-83
2023/01/11 14:03:26;;;;;;;24.67;15.60;;;5.00;99.90;;;;;;5078719;28;20770;-83
2023/01/11 14:06:41;;;;;;;27.50;15.63;;;5.00;99.90;;;;;;5051685;28;20787;-85
2023/01/11 14:09:53;;;;;;;24.07;16.30;;;4.90;99.90;;;;;;5054627;28;20215;-85
2023/01/11 14:13:05;;;;;;;25.63;15.83;;;5.00;99.90;;;;;;5048394;28;20232;-87
2023/01/11 14:16:03;;;;;;;22.53;15.40;;;4.90;99.90;;;;;;5059928;28;20248;-85
2023/01/11 14:19:03;;;;;;;27.50;15.93;;;5.10;99.90;;;;;;5058561;28;20232;-87
2023/01/11 14:22:10;;;;;;;26.37;15.63;;;4.90;99.90;;;;;;5058516;28;20266;-85
2023/01/11 14:25:03;;;;;;;25.50;15.60;;;4.90;99.90;;;;;;5049336;28;20243;-83
2023/01/11 14:28:14;;;;;;;24.93;14.97;;;5.00;99.90;;;;;;5069796;28;20225;-83
2023/01/11 14:31:37;;;;;;;27.00;15.27;;;4.90;99.90;;;;;;5075107;28;20228;-83
2023/01/11 14:34:50;;;;;;;24.87;16.10;;;5.00;99.90;;;;;;5042135;28;20398;-85
2023/01/11 14:38:21;;;;;;;22.90;14.70;;;4.90;99.90;;;;;;5060458;28;20212;-90
2023/01/11 14:41:39;;;;;;;24.27;15.97;;;4.90;99.90;;;;;;5034691;28;20228;-90
2023/01/11 14:44:48;;;;;;;24.03;15.17;;;4.90;99.90;;;;;;5055519;28;20307;-86
2023/01/11 14:48:01;;;;;;;27.73;16.30;;;4.90;99.90;;;;;;5060259;28;20262;-88
2023/01/11 14:51:05;;;;;;;23.83;15.77;;;4.90;99.90;;;;;;5064636;28;20581;-86
2023/01/11 14:54:01;;;;;;;25.23;14.93;;;4.90;99.90;;;;;;5055589;28;20306;-84
2023/01/11 14:56:54;;;;;;;27.27;15.50;;;4.90;99.90;;;;;;5060227;28;20763;-84
2023/01/11 14:59:43;;;;;;;24.73;15.83;;;5.00;99.90;;;;;;5071442;28;20224;-86
2023/01/11 15:02:32;;;;;;;22.37;15.47;;;5.00;99.90;;;;;;5079782;28;20328;-86
2023/01/11 15:05:34;;;;;;;28.20;17.00;;;5.00;99.90;;;;;;5063629;28;20343;-87
2023/01/11 15:08:25;;;;;;;26.63;15.83;;;5.00;99.90;;;;;;5054050;28;20220;-87
2023/01/11 15:11:35;;;;;;;27.90;16.73;;;5.00;99.90;;;;;;5046665;28;20734;-89
2023/01/11 15:14:31;;;;;;;28.27;16.50;;;5.00;99.90;;;;;;5048971;28;20271;-90
2023/01/11 15:20:32;;;;;;;28.73;17.00;;;5.00;99.90;;;;;;5033162;28;20219;-89
2023/01/11 15:23:22;;;;;;;27.70;17.70;;;5.00;99.90;;;;;;5043074;28;20232;-89